Time;durP1;ratioP1;P1;durP2;ratioP2;P2;SDS_P1;SDS_P2;PMS_P1;PMS_P2;Temp;Humidity;BMP_temperature;BMP_pressure;BME280_temperature;BME280_humidity;BME280_pressure;Samples;Min_cycle;Max_cycle;Signal;HPM_P1;HPM_P2
2022/10/14 00:02:20;;;;;;;10.17;6.30;;;14.10;99.90;;;;;;5009374;28;20560;-70
2022/10/14 00:04:45;;;;;;;10.17;6.73;;;14.10;99.90;;;;;;5017341;28;20311;-71
2022/10/14 00:07:11;;;;;;;12.80;8.23;;;14.10;99.90;;;;;;5022042;28;20224;-70
2022/10/14 00:09:38;;;;;;;9.40;6.30;;;14.10;99.90;;;;;;5004078;28;20752;-71
2022/10/14 00:12:04;;;;;;;9.37;6.47;;;14.10;99.90;;;;;;5026833;28;20227;-70
2022/10/14 00:14:30;;;;;;;8.43;6.23;;;14.10;99.90;;;;;;5004098;28;20459;-71
2022/10/14 00:16:56;;;;;;;6.70;5.63;;;14.10;99.90;;;;;;5004056;28;20241;-71
2022/10/14 00:19:21;;;;;;;9.80;5.97;;;14.10;99.90;;;;;;5015989;28;20770;-71
2022/10/14 00:21:49;;;;;;;8.33;6.00;;;14.10;99.90;;;;;;5014543;28;20216;-71
2022/10/14 00:24:15;;;;;;;7.40;5.80;;;14.10;99.90;;;;;;4997463;28;20474;-71
2022/10/14 00:26:42;;;;;;;6.23;4.97;;;14.10;99.90;;;;;;5040625;28;20239;-70
2022/10/14 00:29:11;;;;;;;5.67;5.07;;;14.10;99.90;;;;;;5025765;28;20550;-71
2022/10/14 00:31:38;;;;;;;4.93;4.43;;;14.10;99.90;;;;;;5016277;28;20479;-71
2022/10/14 00:34:04;;;;;;;9.13;5.90;;;14.10;99.90;;;;;;5020426;28;20453;-71
2022/10/14 00:36:30;;;;;;;12.30;6.10;;;14.10;99.90;;;;;;5013202;28;20448;-71
2022/10/14 00:38:56;;;;;;;9.10;5.77;;;14.10;99.90;;;;;;5027712;28;20447;-70
2022/10/14 00:41:26;;;;;;;7.33;6.03;;;14.10;99.90;;;;;;5021107;28;20551;-71
2022/10/14 00:44:13;;;;;;;6.57;5.57;;;14.10;99.90;;;;;;5019638;28;20229;-71
2022/10/14 00:46:41;;;;;;;7.60;5.50;;;14.10;99.90;;;;;;5019771;28;21046;-70
2022/10/14 00:49:14;;;;;;;6.70;5.20;;;14.00;99.90;;;;;;5013283;28;20447;-71
2022/10/14 00:51:43;;;;;;;6.67;5.37;;;14.10;99.90;;;;;;5004218;28;20833;-71
2022/10/14 00:54:11;;;;;;;8.17;5.80;;;14.10;99.90;;;;;;5015028;28;20456;-71
2022/10/14 00:56:37;;;;;;;9.10;6.40;;;14.10;99.90;;;;;;5036817;28;20462;-70
2022/10/14 00:59:06;;;;;;;10.13;5.70;;;14.10;99.90;;;;;;5004608;28;20462;-71
2022/10/14 01:01:32;;;;;;;8.07;5.90;;;14.10;99.90;;;;;;4997229;28;20463;-70
2022/10/14 01:03:58;;;;;;;9.73;6.10;;;14.10;99.90;;;;;;5003561;28;20220;-71
2022/10/14 01:06:30;;;;;;;7.50;6.00;;;14.10;99.90;;;;;;5009603;28;20831;-71
2022/10/14 01:09:15;;;;;;;15.03;6.30;;;14.10;99.90;;;;;;5018064;28;20221;-71
2022/10/14 01:11:59;;;;;;;8.97;5.93;;;14.10;99.90;;;;;;5002057;28;20514;-71
2022/10/14 01:14:48;;;;;;;7.37;5.77;;;14.10;99.90;;;;;;4995520;28;20508;-71
2022/10/14 01:17:44;;;;;;;10.53;5.30;;;14.00;99.90;;;;;;5017311;28;20467;-70
2022/10/14 01:20:47;;;;;;;7.83;5.97;;;14.10;99.90;;;;;;5012850;28;20505;-71
2022/10/14 01:23:19;;;;;;;8.00;6.67;;;14.00;99.90;;;;;;5007255;28;20501;-71
2022/10/14 01:26:09;;;;;;;9.87;6.53;;;14.00;99.90;;;;;;5009521;28;20463;-71
2022/10/14 01:28:38;;;;;;;6.43;5.00;;;14.00;99.90;;;;;;5022614;28;20456;-71
2022/10/14 01:31:09;;;;;;;9.87;6.20;;;14.00;99.90;;;;;;5017658;28;20462;-72
2022/10/14 01:33:39;;;;;;;6.90;5.63;;;14.00;99.90;;;;;;5030360;28;20454;-70
2022/10/14 01:36:17;;;;;;;6.90;4.90;;;14.00;99.90;;;;;;5002880;28;20455;-71
2022/10/14 01:38:49;;;;;;;7.10;5.87;;;14.00;99.90;;;;;;5013637;28;20466;-71
2022/10/14 01:41:28;;;;;;;7.03;5.40;;;13.90;99.90;;;;;;5022924;28;20847;-71
2022/10/14 01:43:58;;;;;;;9.83;4.80;;;13.90;99.90;;;;;;4995201;28;20451;-71
2022/10/14 01:46:26;;;;;;;9.23;5.20;;;13.90;99.90;;;;;;5011397;28;20455;-71
2022/10/14 01:48:57;;;;;;;6.77;5.97;;;13.90;99.90;;;;;;5011150;28;20817;-71
2022/10/14 01:51:30;;;;;;;4.97;4.47;;;13.90;99.90;;;;;;4998246;28;20452;-71
2022/10/14 01:54:05;;;;;;;7.30;5.37;;;13.90;99.90;;;;;;5031462;28;20454;-71
2022/10/14 01:56:32;;;;;;;10.03;5.87;;;13.90;99.90;;;;;;5013643;28;20467;-70
2022/10/14 01:59:00;;;;;;;8.70;6.40;;;13.90;99.90;;;;;;5029240;28;20473;-71
2022/10/14 02:01:26;;;;;;;7.50;6.00;;;13.90;99.90;;;;;;5010640;28;21002;-71
2022/10/14 02:03:52;;;;;;;8.13;5.70;;;13.90;99.90;;;;;;5005089;28;20483;-72
2022/10/14 02:06:25;;;;;;;11.87;6.30;;;13.90;99.90;;;;;;5011931;28;20468;-72
2022/10/14 02:09:00;;;;;;;8.27;5.33;;;13.90;99.90;;;;;;5018374;28;20454;-70
2022/10/14 02:11:35;;;;;;;9.00;5.50;;;13.90;99.90;;;;;;5003751;28;20464;-71
2022/10/14 02:14:16;;;;;;;9.50;7.30;;;13.90;99.90;;;;;;5018895;28;20455;-71
2022/10/14 02:17:12;;;;;;;7.57;5.90;;;13.90;99.90;;;;;;5024460;28;20558;-70
2022/10/14 02:19:59;;;;;;;10.07;5.23;;;13.90;99.90;;;;;;4998347;28;20459;-71
2022/10/14 02:22:37;;;;;;;6.27;5.50;;;13.90;99.90;;;;;;5008240;28;20458;-72
2022/10/14 02:25:10;;;;;;;10.43;5.17;;;13.90;99.90;;;;;;5005783;28;20462;-71
2022/10/14 02:27:36;;;;;;;7.67;5.43;;;13.90;99.90;;;;;;5019401;28;20528;-71
2022/10/14 02:30:03;;;;;;;13.10;5.93;;;13.90;99.90;;;;;;5019597;28;20550;-70
2022/10/14 02:32:31;;;;;;;9.13;5.40;;;13.90;99.90;;;;;;5023391;28;20455;-71
2022/10/14 02:34:58;;;;;;;10.67;6.00;;;13.90;99.90;;;;;;4998204;28;20902;-71
2022/10/14 02:37:27;;;;;;;11.27;6.13;;;13.90;99.90;;;;;;5019883;28;20457;-72
2022/10/14 02:40:12;;;;;;;8.60;5.50;;;13.90;99.90;;;;;;5023192;28;20466;-71
2022/10/14 02:42:38;;;;;;;8.80;6.73;;;13.90;99.90;;;;;;5010252;28;20474;-69
2022/10/14 02:45:05;;;;;;;8.33;5.60;;;13.90;99.90;;;;;;5034413;28;20462;-70
2022/10/14 02:47:31;;;;;;;8.57;5.87;;;13.90;99.90;;;;;;5018029;28;20230;-70
2022/10/14 02:49:57;;;;;;;5.43;4.93;;;13.90;99.90;;;;;;5015298;28;20443;-71
2022/10/14 02:52:23;;;;;;;9.10;6.67;;;13.90;99.90;;;;;;5008774;28;20216;-71
2022/10/14 02:54:51;;;;;;;7.47;5.43;;;13.90;99.90;;;;;;5004539;28;20450;-71
2022/10/14 02:57:17;;;;;;;6.80;5.50;;;13.90;99.90;;;;;;5008088;28;20845;-72
2022/10/14 02:59:43;;;;;;;5.90;5.10;;;13.90;99.90;;;;;;5017191;28;20315;-70
2022/10/14 03:02:08;;;;;;;7.10;5.77;;;13.90;99.90;;;;;;5025850;28;20692;-71
2022/10/14 03:04:37;;;;;;;7.97;5.70;;;13.90;99.90;;;;;;5018414;28;20814;-71
2022/10/14 03:07:03;;;;;;;9.43;5.37;;;13.90;99.90;;;;;;5007364;28;20454;-71
2022/10/14 03:09:31;;;;;;;9.53;5.70;;;13.90;99.90;;;;;;5015769;28;20220;-72
2022/10/14 03:11:57;;;;;;;8.20;6.17;;;13.90;99.90;;;;;;5018616;28;20455;-71
2022/10/14 03:14:23;;;;;;;8.60;6.10;;;13.90;99.90;;;;;;5022261;28;20449;-71
2022/10/14 03:16:49;;;;;;;10.07;6.73;;;13.90;99.90;;;;;;4996039;28;20239;-71
2022/10/14 03:19:20;;;;;;;6.33;5.20;;;13.90;99.90;;;;;;4996312;28;20448;-71
2022/10/14 03:21:48;;;;;;;9.63;6.30;;;13.90;99.90;;;;;;5020277;28;20459;-71
2022/10/14 03:24:18;;;;;;;9.73;7.07;;;13.90;99.90;;;;;;5016504;28;20971;-71
2022/10/14 03:26:45;;;;;;;11.77;6.60;;;13.90;99.90;;;;;;5010106;28;20535;-71
2022/10/14 03:29:11;;;;;;;12.40;6.97;;;13.90;99.90;;;;;;5001687;28;20551;-71
2022/10/14 03:31:59;;;;;;;8.90;6.43;;;13.90;99.90;;;;;;4996391;28;20332;-71
2022/10/14 03:34:30;;;;;;;8.23;6.27;;;13.90;99.90;;;;;;5025817;28;20446;-70
2022/10/14 03:37:08;;;;;;;7.63;6.20;;;13.90;99.90;;;;;;5009673;28;20450;-71
2022/10/14 03:39:43;;;;;;;7.03;5.70;;;13.90;99.90;;;;;;5021335;28;20535;-71
2022/10/14 03:42:10;;;;;;;8.40;6.27;;;13.90;99.90;;;;;;5021418;28;20465;-71
2022/10/14 03:44:41;;;;;;;9.53;6.87;;;13.90;99.90;;;;;;4995135;28;20453;-71
2022/10/14 03:47:20;;;;;;;17.90;6.63;;;13.90;99.90;;;;;;5022480;28;20455;-71
2022/10/14 03:49:47;;;;;;;9.03;6.50;;;13.90;99.90;;;;;;5022467;28;20489;-71
2022/10/14 03:52:25;;;;;;;9.20;7.03;;;13.90;99.90;;;;;;5021649;28;20459;-72
2022/10/14 03:55:03;;;;;;;15.70;7.57;;;13.90;99.90;;;;;;5019142;28;20542;-72
2022/10/14 03:57:29;;;;;;;9.60;6.57;;;13.90;99.90;;;;;;5017380;28;20462;-72
2022/10/14 03:59:57;;;;;;;8.83;6.07;;;13.90;99.90;;;;;;5008845;28;20452;-72
2022/10/14 04:02:39;;;;;;;8.97;6.90;;;13.90;99.90;;;;;;5037017;28;20473;-71
2022/10/14 04:05:09;;;;;;;8.27;6.40;;;13.90;99.90;;;;;;5018113;28;20469;-72
2022/10/14 04:07:35;;;;;;;10.10;6.73;;;13.90;99.90;;;;;;5036054;28;20440;-71
2022/10/14 04:10:01;;;;;;;8.60;6.67;;;13.90;99.90;;;;;;5006556;28;20447;-71
2022/10/14 04:12:28;;;;;;;10.40;6.63;;;13.90;99.90;;;;;;5020288;28;20514;-71
2022/10/14 04:15:09;;;;;;;12.27;6.90;;;13.90;99.90;;;;;;5005836;28;20454;-70
2022/10/14 04:17:51;;;;;;;9.23;6.83;;;13.90;99.90;;;;;;5013452;28;20435;-70
2022/10/14 04:20:17;;;;;;;11.50;6.83;;;13.90;99.90;;;;;;5020990;28;20994;-71
2022/10/14 04:22:43;;;;;;;11.50;7.37;;;13.90;99.90;;;;;;5016583;28;20227;-71
2022/10/14 04:25:10;;;;;;;8.97;6.80;;;13.90;99.90;;;;;;5007223;28;20469;-71
2022/10/14 04:27:36;;;;;;;10.97;7.33;;;13.90;99.90;;;;;;5022263;28;20436;-71
2022/10/14 04:30:06;;;;;;;11.40;7.30;;;13.90;99.90;;;;;;5023474;28;20220;-72
2022/10/14 04:32:42;;;;;;;9.93;7.90;;;13.90;99.90;;;;;;5003366;28;20526;-71
2022/10/14 04:35:09;;;;;;;9.57;7.07;;;13.90;99.90;;;;;;5023170;28;20932;-71
2022/10/14 04:37:36;;;;;;;9.63;7.63;;;13.90;99.90;;;;;;5011731;28;20451;-71
2022/10/14 04:40:08;;;;;;;10.33;7.50;;;13.90;99.90;;;;;;4997460;28;20455;-71
2022/10/14 04:42:40;;;;;;;12.80;8.20;;;13.90;99.90;;;;;;4997473;28;20460;-70
2022/10/14 04:45:14;;;;;;;12.17;8.37;;;13.90;99.90;;;;;;5001050;28;20457;-71
2022/10/14 04:47:45;;;;;;;12.63;8.63;;;13.90;99.90;;;;;;5002377;28;20533;-71
2022/10/14 04:50:11;;;;;;;13.17;8.83;;;13.90;99.90;;;;;;5018993;28;20530;-70
2022/10/14 04:52:56;;;;;;;13.43;7.27;;;13.90;99.90;;;;;;5021438;28;20760;-71
2022/10/14 04:55:22;;;;;;;9.30;8.17;;;13.90;99.90;;;;;;4998704;28;21185;-71
2022/10/14 04:57:49;;;;;;;10.90;7.27;;;13.90;99.90;;;;;;5013912;28;20986;-70
2022/10/14 05:00:16;;;;;;;9.53;7.13;;;13.90;99.90;;;;;;5012364;28;20455;-70
2022/10/14 05:03:00;;;;;;;11.57;6.80;;;13.90;99.90;;;;;;5008642;28;20460;-71
2022/10/14 05:05:32;;;;;;;12.20;8.60;;;13.90;99.90;;;;;;5013601;28;20464;-72
2022/10/14 05:07:59;;;;;;;10.93;7.30;;;13.90;99.90;;;;;;5004156;28;20483;-71
2022/10/14 05:10:34;;;;;;;11.67;7.47;;;13.90;99.90;;;;;;5028158;28;20446;-71
2022/10/14 05:13:02;;;;;;;14.53;8.60;;;13.90;99.90;;;;;;5002449;28;20471;-71
2022/10/14 05:15:32;;;;;;;10.03;8.40;;;13.90;99.90;;;;;;4997689;28;20467;-70
2022/10/14 05:18:04;;;;;;;16.10;9.10;;;13.90;99.90;;;;;;5017004;28;20573;-71
2022/10/14 05:20:49;;;;;;;10.13;8.40;;;13.90;99.90;;;;;;5028729;28;20448;-71
2022/10/14 05:23:17;;;;;;;10.97;7.47;;;13.90;99.90;;;;;;5020380;28;20478;-70
2022/10/14 05:25:43;;;;;;;15.00;8.83;;;13.90;99.90;;;;;;5028719;28;20513;-71
2022/10/14 05:28:09;;;;;;;17.00;9.10;;;13.90;99.90;;;;;;5016014;28;20459;-71
2022/10/14 05:30:35;;;;;;;14.50;9.30;;;13.90;99.90;;;;;;5001426;28;20463;-70
2022/10/14 05:33:05;;;;;;;14.07;8.60;;;13.90;99.90;;;;;;5004693;28;20514;-71
2022/10/14 05:35:32;;;;;;;13.47;8.70;;;13.90;99.90;;;;;;5026467;28;20498;-71
2022/10/14 05:37:58;;;;;;;9.80;7.20;;;13.90;99.90;;;;;;5021918;28;20481;-72
2022/10/14 05:40:24;;;;;;;12.00;8.50;;;13.90;99.90;;;;;;5014835;28;20599;-72
2022/10/14 05:42:51;;;;;;;10.87;7.97;;;13.90;99.90;;;;;;5021460;28;20228;-71
2022/10/14 05:45:19;;;;;;;10.97;8.30;;;13.90;99.90;;;;;;5022439;28;20459;-71
2022/10/14 05:47:49;;;;;;;16.97;8.73;;;13.90;99.90;;;;;;5002561;28;20532;-71
2022/10/14 05:50:17;;;;;;;11.50;7.70;;;13.90;99.90;;;;;;5021117;28;20458;-71
2022/10/14 05:52:45;;;;;;;14.80;8.50;;;13.90;99.90;;;;;;5017201;28;20478;-71
2022/10/14 05:55:20;;;;;;;17.57;9.77;;;13.90;99.90;;;;;;5013703;28;20541;-72
2022/10/14 05:57:47;;;;;;;12.67;9.67;;;13.90;99.90;;;;;;4998121;28;20463;-72
2022/10/14 06:00:18;;;;;;;11.87;9.17;;;13.90;99.90;;;;;;5006844;28;20847;-70
2022/10/14 06:02:46;;;;;;;13.80;8.67;;;13.90;99.90;;;;;;5001638;28;20558;-71
2022/10/14 06:05:16;;;;;;;12.40;9.20;;;13.90;99.90;;;;;;4999904;28;20454;-71
2022/10/14 06:07:42;;;;;;;13.33;9.00;;;13.90;99.90;;;;;;5016956;28;20474;-71
2022/10/14 06:10:09;;;;;;;12.13;8.27;;;13.90;99.90;;;;;;5001871;28;20458;-70
2022/10/14 06:12:36;;;;;;;11.83;8.13;;;13.90;99.90;;;;;;4992734;28;20271;-71
2022/10/14 06:15:02;;;;;;;15.40;7.70;;;13.90;99.90;;;;;;5017955;28;20495;-70
2022/10/14 06:17:28;;;;;;;16.07;8.00;;;13.90;99.90;;;;;;5020395;28;20475;-72
2022/10/14 06:19:54;;;;;;;13.40;9.30;;;13.90;99.90;;;;;;5016678;28;20960;-72
2022/10/14 06:22:20;;;;;;;14.03;9.07;;;13.90;99.90;;;;;;5001742;28;20471;-72
2022/10/14 06:24:46;;;;;;;14.10;10.10;;;13.90;99.90;;;;;;5010307;28;20217;-72
2022/10/14 06:27:11;;;;;;;19.27;11.03;;;13.90;99.90;;;;;;5004696;28;20954;-71
2022/10/14 06:29:37;;;;;;;16.60;11.70;;;13.90;99.90;;;;;;5001322;28;20228;-72
2022/10/14 06:32:05;;;;;;;22.50;12.73;;;13.90;99.90;;;;;;5018135;28;20306;-71
2022/10/14 06:34:31;;;;;;;14.67;10.40;;;13.90;99.90;;;;;;5003449;28;20219;-70
2022/10/14 06:36:57;;;;;;;14.13;10.03;;;13.90;99.90;;;;;;4996951;28;20457;-72
2022/10/14 06:39:23;;;;;;;16.27;9.60;;;13.90;99.90;;;;;;5006001;28;20444;-71
2022/10/14 06:41:48;;;;;;;12.47;9.57;;;13.90;99.90;;;;;;5027876;28;21003;-72
2022/10/14 06:44:19;;;;;;;16.53;11.33;;;13.90;99.90;;;;;;5012587;28;20232;-71
2022/10/14 06:46:45;;;;;;;16.43;9.60;;;14.00;99.90;;;;;;5005400;28;20450;-71
2022/10/14 06:49:11;;;;;;;14.67;9.60;;;13.90;99.90;;;;;;5002137;28;20470;-70
2022/10/14 06:51:38;;;;;;;16.80;11.50;;;14.00;99.90;;;;;;5020598;28;20212;-70
2022/10/14 06:54:04;;;;;;;23.07;13.50;;;14.00;99.90;;;;;;4998011;28;20227;-71
2022/10/14 06:56:30;;;;;;;36.87;19.00;;;14.00;99.90;;;;;;5003652;28;20456;-71
2022/10/14 06:58:55;;;;;;;30.00;15.70;;;14.00;99.90;;;;;;5014267;28;20228;-71
2022/10/14 07:01:22;;;;;;;19.73;13.33;;;14.00;99.90;;;;;;5018496;28;20254;-72
2022/10/14 07:03:48;;;;;;;24.97;15.00;;;14.00;99.90;;;;;;5017680;28;20283;-71
2022/10/14 07:06:14;;;;;;;28.80;14.20;;;14.00;99.90;;;;;;4999193;28;20467;-71
2022/10/14 07:08:40;;;;;;;20.10;12.83;;;14.00;99.90;;;;;;4995038;28;20685;-71
2022/10/14 07:11:06;;;;;;;23.47;15.17;;;14.00;99.90;;;;;;5027382;28;20451;-71
2022/10/14 07:13:36;;;;;;;15.23;11.30;;;14.00;99.90;;;;;;4999405;28;20462;-70
2022/10/14 07:16:02;;;;;;;17.10;9.97;;;14.00;99.90;;;;;;5017617;28;20235;-71
2022/10/14 07:18:28;;;;;;;16.10;10.23;;;14.00;99.90;;;;;;5016347;28;20451;-71
2022/10/14 07:20:53;;;;;;;15.63;9.60;;;14.00;99.90;;;;;;5016676;28;20456;-70
2022/10/14 07:23:19;;;;;;;15.73;10.33;;;14.00;99.90;;;;;;5006906;28;20231;-71
2022/10/14 07:25:45;;;;;;;15.47;9.33;;;14.10;99.90;;;;;;5006114;28;20223;-72
2022/10/14 07:28:11;;;;;;;11.23;8.40;;;14.10;99.90;;;;;;5014957;28;20223;-71
2022/10/14 07:30:37;;;;;;;15.60;9.23;;;14.10;99.90;;;;;;5018042;28;20578;-70
2022/10/14 07:33:03;;;;;;;10.47;7.70;;;14.10;99.90;;;;;;4994899;28;20305;-71
2022/10/14 07:35:28;;;;;;;11.33;8.37;;;14.10;99.90;;;;;;5029969;28;20466;-69
2022/10/14 07:37:56;;;;;;;14.10;7.80;;;14.10;99.90;;;;;;5032356;28;20449;-71
2022/10/14 07:40:22;;;;;;;17.30;7.43;;;14.10;99.90;;;;;;5013999;28;20232;-71
2022/10/14 07:42:48;;;;;;;10.37;8.00;;;14.10;99.90;;;;;;4999296;28;20471;-71
2022/10/14 07:45:15;;;;;;;13.00;8.90;;;14.10;99.90;;;;;;5017338;28;20228;-72
2022/10/14 07:47:42;;;;;;;11.90;8.30;;;14.20;99.90;;;;;;5004340;28;20756;-71
2022/10/14 07:50:09;;;;;;;11.20;8.30;;;14.20;99.90;;;;;;4987939;28;20444;-72
2022/10/14 07:52:35;;;;;;;12.43;8.20;;;14.20;99.90;;;;;;5014597;28;20486;-72
2022/10/14 07:55:01;;;;;;;12.57;8.40;;;14.20;99.90;;;;;;4998146;28;20975;-70
2022/10/14 07:57:27;;;;;;;10.83;7.53;;;14.20;99.90;;;;;;5016086;28;20454;-71
2022/10/14 07:59:53;;;;;;;14.77;7.83;;;14.20;99.90;;;;;;5016552;28;20227;-72
2022/10/14 08:02:18;;;;;;;10.27;7.63;;;14.20;99.90;;;;;;5017829;28;20474;-72
2022/10/14 08:04:45;;;;;;;12.13;7.63;;;14.20;99.90;;;;;;5013748;28;20218;-72
2022/10/14 08:07:13;;;;;;;11.40;8.00;;;14.20;99.90;;;;;;5005111;28;20221;-71
2022/10/14 08:09:39;;;;;;;8.33;6.57;;;14.20;99.90;;;;;;5016798;28;20456;-71
2022/10/14 08:12:05;;;;;;;9.80;6.90;;;14.20;99.90;;;;;;5023175;28;20450;-71
2022/10/14 08:14:31;;;;;;;9.37;7.53;;;14.30;99.90;;;;;;5017062;28;20524;-73
2022/10/14 08:16:57;;;;;;;12.50;7.93;;;14.30;99.90;;;;;;5026480;28;20533;-71
2022/10/14 08:19:22;;;;;;;7.73;6.43;;;14.30;99.90;;;;;;5041483;28;20772;-71
2022/10/14 08:21:48;;;;;;;10.97;9.63;;;14.30;99.90;;;;;;5000264;28;20229;-70
2022/10/14 08:24:14;;;;;;;14.43;9.20;;;14.30;99.90;;;;;;5004585;28;20277;-71
2022/10/14 08:26:51;;;;;;;12.33;9.03;;;14.30;99.90;;;;;;4998461;28;20251;-71
2022/10/14 08:29:18;;;;;;;11.83;9.30;;;14.30;99.90;;;;;;5022347;28;20585;-70
2022/10/14 08:31:43;;;;;;;12.00;8.70;;;14.30;99.90;;;;;;5020953;28;20577;-71
2022/10/14 08:34:10;;;;;;;9.67;7.90;;;14.30;99.90;;;;;;5002862;28;20530;-71
2022/10/14 08:36:36;;;;;;;11.30;7.20;;;14.40;99.90;;;;;;5007359;28;20676;-71
2022/10/14 08:39:01;;;;;;;10.13;6.83;;;14.40;99.90;;;;;;5044427;28;20473;-73
2022/10/14 08:41:57;;;;;;;12.37;7.10;;;14.40;99.90;;;;;;4993963;28;20455;-72
2022/10/14 08:44:34;;;;;;;12.23;8.13;;;14.40;99.90;;;;;;5003800;28;20282;-72
2022/10/14 08:47:02;;;;;;;7.67;6.17;;;14.40;99.90;;;;;;5007672;28;20460;-72
2022/10/14 08:49:58;;;;;;;6.80;6.10;;;14.40;99.90;;;;;;5001699;28;20451;-71
2022/10/14 08:52:29;;;;;;;9.20;6.60;;;14.50;99.90;;;;;;5015265;28;20442;-71
2022/10/14 08:55:00;;;;;;;10.57;6.80;;;14.50;99.90;;;;;;5020569;28;20459;-71
2022/10/14 08:57:31;;;;;;;8.80;6.77;;;14.50;99.90;;;;;;5000691;28;20483;-72
2022/10/14 08:59:57;;;;;;;8.60;6.70;;;14.50;99.90;;;;;;5011989;28;21041;-70
2022/10/14 09:02:31;;;;;;;9.53;6.27;;;14.50;99.90;;;;;;5000601;28;20470;-71
2022/10/14 09:04:58;;;;;;;10.40;7.07;;;14.60;99.90;;;;;;5021561;28;20231;-70
2022/10/14 09:07:24;;;;;;;11.40;8.00;;;14.60;99.90;;;;;;5005471;28;20458;-72
2022/10/14 09:09:59;;;;;;;8.60;7.10;;;14.60;99.90;;;;;;5018641;28;20959;-72
2022/10/14 09:12:29;;;;;;;11.10;7.70;;;14.60;99.90;;;;;;5018257;28;20219;-73
2022/10/14 09:15:20;;;;;;;10.97;7.80;;;14.70;99.90;;;;;;5022141;28;20901;-71
2022/10/14 09:17:56;;;;;;;11.53;7.20;;;14.70;99.90;;;;;;5030601;28;20467;-71
2022/10/14 09:20:24;;;;;;;13.50;7.70;;;14.80;99.90;;;;;;5008387;28;20464;-72
2022/10/14 09:23:21;;;;;;;10.70;7.67;;;14.80;99.90;;;;;;5019081;28;20554;-72
2022/10/14 09:26:10;;;;;;;10.73;7.97;;;14.80;99.90;;;;;;4989140;28;20833;-72
2022/10/14 09:28:39;;;;;;;10.53;8.60;;;14.80;99.90;;;;;;5014291;28;20881;-71
2022/10/14 09:31:09;;;;;;;10.83;7.97;;;14.90;99.90;;;;;;5017766;28;20475;-71
2022/10/14 09:33:38;;;;;;;9.43;7.00;;;14.90;99.90;;;;;;5014812;28;20541;-70
2022/10/14 09:36:06;;;;;;;12.47;8.17;;;15.00;99.90;;;;;;5012895;28;20458;-71
2022/10/14 09:38:31;;;;;;;12.87;8.00;;;15.00;99.90;;;;;;5018163;28;20463;-72
2022/10/14 09:41:01;;;;;;;12.87;8.70;;;15.00;99.90;;;;;;5012012;28;20451;-70
2022/10/14 09:43:28;;;;;;;9.43;6.90;;;15.10;99.90;;;;;;5019093;28;20758;-72
2022/10/14 09:46:09;;;;;;;11.63;8.03;;;15.10;99.90;;;;;;5013474;28;20474;-72
2022/10/14 09:48:44;;;;;;;11.43;8.40;;;15.20;99.90;;;;;;5012806;28;20462;-71
2022/10/14 09:51:19;;;;;;;10.60;7.30;;;15.30;99.90;;;;;;5019270;28;20490;-72
2022/10/14 09:53:48;;;;;;;10.70;7.43;;;15.30;99.90;;;;;;5034324;28;20450;-72
2022/10/14 09:56:15;;;;;;;10.53;7.90;;;15.40;99.90;;;;;;5000576;28;20593;-72
2022/10/14 09:58:53;;;;;;;13.87;8.47;;;15.40;99.90;;;;;;5014544;28;20452;-73
2022/10/14 10:01:28;;;;;;;11.97;7.77;;;15.40;99.90;;;;;;4999483;28;20456;-71
2022/10/14 10:03:55;;;;;;;13.47;8.90;;;15.40;99.90;;;;;;5000887;28;20533;-72
2022/10/14 10:06:24;;;;;;;14.43;8.63;;;15.40;99.90;;;;;;5016862;28;20589;-73
2022/10/14 10:08:55;;;;;;;13.63;7.90;;;15.50;99.90;;;;;;5020914;28;20979;-71
2022/10/14 10:11:29;;;;;;;12.03;8.77;;;15.50;99.90;;;;;;5015877;28;20451;-72
2022/10/14 10:13:55;;;;;;;10.70;8.10;;;15.60;99.90;;;;;;5015695;28;20459;-72
2022/10/14 10:16:30;;;;;;;11.90;8.37;;;15.60;99.90;;;;;;4999625;28;20563;-72
2022/10/14 10:18:59;;;;;;;13.50;8.63;;;15.60;99.90;;;;;;5021741;28;20500;-72
2022/10/14 10:21:28;;;;;;;11.90;8.10;;;15.60;99.90;;;;;;5001172;28;20455;-73
2022/10/14 10:24:02;;;;;;;13.73;9.00;;;15.60;99.90;;;;;;4996047;28;20456;-72
2022/10/14 10:26:33;;;;;;;11.00;7.13;;;15.60;99.90;;;;;;5018344;28;20501;-72
2022/10/14 10:29:01;;;;;;;16.20;9.23;;;15.60;99.90;;;;;;5016322;28;21018;-71
2022/10/14 10:31:42;;;;;;;16.70;10.70;;;15.60;99.90;;;;;;4995992;28;20450;-72
2022/10/14 10:34:28;;;;;;;12.87;9.20;;;15.70;99.90;;;;;;5014315;28;20454;-71
2022/10/14 10:37:18;;;;;;;13.73;9.87;;;15.60;99.90;;;;;;5002920;28;20562;-72
2022/10/14 10:40:01;;;;;;;12.87;9.50;;;15.60;99.90;;;;;;5003163;28;20455;-72
2022/10/14 10:42:59;;;;;;;15.83;9.27;;;15.60;99.90;;;;;;5024819;28;20672;-72
2022/10/14 10:45:52;;;;;;;15.80;10.00;;;15.70;99.90;;;;;;4986247;28;20974;-72
2022/10/14 10:48:31;;;;;;;15.33;9.67;;;15.70;99.90;;;;;;5014738;28;20454;-72
2022/10/14 10:51:34;;;;;;;13.20;9.43;;;15.70;99.90;;;;;;5014182;28;20459;-72
2022/10/14 10:54:12;;;;;;;17.73;9.80;;;15.70;99.90;;;;;;4994439;28;20489;-72
2022/10/14 10:56:51;;;;;;;17.93;11.10;;;15.70;99.90;;;;;;5019436;28;20504;-72
2022/10/14 10:59:42;;;;;;;15.67;10.47;;;15.70;99.90;;;;;;5019559;28;20451;-71
2022/10/14 11:02:47;;;;;;;11.80;8.90;;;15.70;99.90;;;;;;5020858;28;20474;-72
2022/10/14 11:05:30;;;;;;;12.70;8.20;;;15.70;99.90;;;;;;5036076;28;20466;-72
2022/10/14 11:14:47;;;;;;;14.50;9.37;;;15.70;99.90;;;;;;5029393;28;20451;-73
2022/10/14 11:17:22;;;;;;;11.00;9.50;;;15.70;99.90;;;;;;5035785;28;20455;-71
2022/10/14 11:20:33;;;;;;;11.37;8.60;;;15.70;99.90;;;;;;5035463;28;20812;-72
2022/10/14 11:23:17;;;;;;;12.80;9.07;;;15.70;99.90;;;;;;5017904;28;20469;-72
2022/10/14 11:25:50;;;;;;;12.50;8.83;;;15.70;99.90;;;;;;5018889;28;20561;-72
2022/10/14 11:28:41;;;;;;;12.13;9.17;;;15.70;99.90;;;;;;5022637;28;20467;-73
2022/10/14 11:31:39;;;;;;;12.43;8.50;;;15.80;99.90;;;;;;5015269;28;20456;-72
2022/10/14 11:34:20;;;;;;;14.53;9.33;;;15.80;99.90;;;;;;5014563;28;20454;-72
2022/10/14 11:37:04;;;;;;;17.77;10.07;;;15.80;99.90;;;;;;5027233;28;20450;-72
2022/10/14 11:39:38;;;;;;;12.17;9.30;;;15.80;99.90;;;;;;5031752;28;20450;-73
2022/10/14 11:42:26;;;;;;;12.77;9.17;;;15.80;99.90;;;;;;5013250;28;20463;-73
2022/10/14 11:45:15;;;;;;;12.67;9.03;;;15.80;99.90;;;;;;5017237;28;20590;-74
2022/10/14 11:47:46;;;;;;;14.97;9.50;;;15.80;99.90;;;;;;5034057;28;20459;-72
2022/10/14 11:50:35;;;;;;;11.47;9.10;;;15.80;99.90;;;;;;5011386;28;20451;-72
2022/10/14 11:53:22;;;;;;;12.13;9.27;;;15.80;99.90;;;;;;5026083;28;20490;-72
2022/10/14 11:55:59;;;;;;;14.83;7.87;;;15.80;99.90;;;;;;5031012;28;20498;-72
2022/10/14 11:58:28;;;;;;;9.97;7.73;;;15.80;99.90;;;;;;5011195;28;21031;-72
2022/10/14 12:01:10;;;;;;;9.27;7.20;;;15.80;99.90;;;;;;5027176;28;20460;-72
2022/10/14 12:03:58;;;;;;;11.70;8.60;;;15.80;99.90;;;;;;5019244;28;20526;-73
2022/10/14 12:06:28;;;;;;;12.20;7.40;;;15.80;99.90;;;;;;4995105;28;20539;-72
2022/10/14 12:08:56;;;;;;;10.50;7.80;;;15.80;99.90;;;;;;4997269;28;20807;-72
2022/10/14 12:11:45;;;;;;;12.43;7.57;;;15.80;99.90;;;;;;5011694;28;20486;-70
2022/10/14 12:14:20;;;;;;;11.50;8.27;;;15.80;99.90;;;;;;5025610;28;20962;-71
2022/10/14 12:16:48;;;;;;;9.67;7.90;;;15.80;99.90;;;;;;5015995;28;20513;-72
2022/10/14 12:19:21;;;;;;;9.73;8.07;;;15.80;99.90;;;;;;5002553;28;20478;-72
2022/10/14 12:22:11;;;;;;;13.50;8.50;;;15.80;99.90;;;;;;5010226;28;20468;-71
2022/10/14 12:24:42;;;;;;;9.20;7.30;;;15.80;99.90;;;;;;5022012;28;20443;-72
2022/10/14 12:27:11;;;;;;;13.07;9.30;;;15.80;99.90;;;;;;5003083;28;20508;-73
2022/10/14 12:29:41;;;;;;;7.93;6.50;;;15.80;99.90;;;;;;5001400;28;20533;-72
2022/10/14 12:32:29;;;;;;;8.60;6.00;;;15.80;99.90;;;;;;5024069;28;20443;-73
2022/10/14 12:34:58;;;;;;;9.40;6.80;;;15.80;99.90;;;;;;5019248;28;20467;-73
2022/10/14 12:37:23;;;;;;;7.53;6.13;;;15.90;99.90;;;;;;5021232;28;20462;-72
2022/10/14 12:40:12;;;;;;;10.33;6.67;;;15.90;99.90;;;;;;5026028;28;20465;-72
2022/10/14 12:42:57;;;;;;;7.53;5.40;;;15.90;99.90;;;;;;4999385;28;20251;-73
2022/10/14 12:45:26;;;;;;;8.80;7.00;;;15.80;99.90;;;;;;5005407;28;20462;-73
2022/10/14 12:48:05;;;;;;;9.40;7.13;;;15.90;99.90;;;;;;5036714;28;20451;-73
2022/10/14 12:50:36;;;;;;;9.10;6.10;;;15.90;99.90;;;;;;5028164;28;20455;-72
2022/10/14 12:53:07;;;;;;;6.80;5.83;;;15.90;99.90;;;;;;5025955;28;20463;-72
2022/10/14 12:55:47;;;;;;;9.63;5.50;;;15.90;99.90;;;;;;5005791;28;20471;-71
2022/10/14 12:58:26;;;;;;;7.23;5.80;;;15.90;99.90;;;;;;5040722;28;20458;-73
2022/10/14 13:01:16;;;;;;;6.33;5.47;;;15.90;99.90;;;;;;5001891;28;20447;-73
2022/10/14 13:03:53;;;;;;;7.00;5.03;;;15.90;99.90;;;;;;5011248;28;20481;-72
2022/10/14 13:06:31;;;;;;;6.60;5.60;;;15.90;99.90;;;;;;5043547;28;20470;-73
2022/10/14 13:09:14;;;;;;;6.90;5.40;;;15.90;99.90;;;;;;5027181;28;20454;-72
2022/10/14 13:11:52;;;;;;;4.27;3.87;;;15.90;99.90;;;;;;5018710;28;20447;-73
2022/10/14 13:14:21;;;;;;;4.97;4.07;;;15.90;99.90;;;;;;5020055;28;20470;-73